Pagina principale
METAR-TAF:

METAR-TAF

Aeroporti :

Valence, Francia

latitudine: 44-54-58N, longitudine: 4-58-06E, altezza: 160 m

Osservazione

Il bollettino è stato emesso 10 ore e 59 minuti fa, alle 18:00 UTC
Vento 21 kt da nord
Temperature 5°C
Umidità 75%
Pressione 1018 hPa
Visibilità 10 km o più
Cielo coperto ad un'altezza di 2100 ft

METAR: LFLU 291800Z AUTO 36021KT 9999 OVC021 05/01 Q1018

Ora: 06:59 (04:59 UTC)


TAF: mancante

Osservazioni e previsioni meteorologiche di più di 4000 aeroporti (messaggi METAR e TAF).

Le stazioni disponibili sono rappresentate dai dischi gialli e rossi sulla carta.

Puntare il mouse per vedere il nome della stazione.

Clicca sopra per visualizzare le osservazioni e previsioni meteorologiche.

Per cambiare la mappa : fare clic sui pulsanti verdi con una croce nera per ingrandire, il pulsante verde con un trattino per diminuire, o sulla freccia verde per le mappe adiacenti.


METAR-TAF: